Time;durP1;ratioP1;P1;durP2;ratioP2;P2;SDS_P1;SDS_P2;PMS_P1;PMS_P2;Temp;Humidity;BMP_temperature;BMP_pressure;BME280_temperature;BME280_humidity;BME280_pressure;Samples;Min_cycle;Max_cycle;Signal;HPM_P1;HPM_P2
2023/11/20 00:00:50;;;;;;;12.68;2.40;;;;;;;16.33;68.19;100838.94;4997748;28;20092;-80
2023/11/20 00:03:21;;;;;;;19.90;2.63;;;;;;;16.09;69.35;100831.31;4994419;28;20492;-80
2023/11/20 00:05:46;;;;;;;22.98;2.65;;;;;;;16.37;68.90;100835.38;4978077;28;20069;-80
2023/11/20 00:08:12;;;;;;;17.67;3.05;;;;;;;15.80;71.34;100834.19;4994012;28;20030;-79
2023/11/20 00:10:40;;;;;;;17.13;3.03;;;;;;;15.93;70.87;100832.31;4997802;28;20030;-80
2023/11/20 00:13:06;;;;;;;21.83;3.00;;;;;;;15.79;71.01;100835.97;4998106;28;20045;-80
2023/11/20 00:15:36;;;;;;;21.65;3.05;;;;;;;15.68;71.95;100829.03;4980131;28;20038;-78
2023/11/20 00:18:03;;;;;;;21.48;3.08;;;;;;;15.82;71.31;100830.66;4996528;28;20038;-78
2023/11/20 00:20:31;;;;;;;28.27;3.08;;;;;;;15.91;72.09;100834.13;4997026;28;20038;-79
2023/11/20 00:22:57;;;;;;;18.90;2.70;;;;;;;15.69;71.22;100826.41;4997208;28;20046;-78
2023/11/20 00:25:22;;;;;;;18.15;2.78;;;;;;;16.16;69.86;100825.09;4999041;28;20041;-79
2023/11/20 00:27:48;;;;;;;18.65;2.78;;;;;;;15.91;70.31;100826.22;4979586;28;20030;-78
2023/11/20 00:30:13;;;;;;;24.92;3.17;;;;;;;15.92;70.41;100833.22;4995885;28;20035;-79
2023/11/20 00:32:38;;;;;;;16.98;2.70;;;;;;;15.97;69.26;100829.69;4977147;28;20062;-79
2023/11/20 00:35:04;;;;;;;18.00;2.75;;;;;;;16.01;68.95;100835.75;4977649;28;20035;-78
2023/11/20 00:37:32;;;;;;;17.55;2.90;;;;;;;16.07;68.70;100846.22;4998130;28;20042;-78
2023/11/20 00:40:01;;;;;;;18.27;3.20;;;;;;;15.78;70.43;100839.47;4997897;28;20058;-78
2023/11/20 00:42:26;;;;;;;16.27;2.60;;;;;;;15.64;71.71;100851.84;5004672;28;20042;-79
2023/11/20 00:44:51;;;;;;;20.48;2.85;;;;;;;15.80;73.09;100848.19;5003947;28;20058;-78
2023/11/20 00:47:17;;;;;;;23.20;3.13;;;;;;;15.43;74.47;100841.44;5002919;28;20039;-78
2023/11/20 00:49:45;;;;;;;20.35;2.95;;;;;;;15.54;75.38;100844.94;4986272;28;20093;-79
2023/11/20 00:52:23;;;;;;;22.13;2.50;;;;;;;15.43;76.07;100844.94;5002944;28;20112;-79
2023/11/20 00:54:54;;;;;;;21.13;2.85;;;;;;;15.24;76.61;100851.22;4994796;28;20045;-80
2023/11/20 00:57:22;;;;;;;21.45;2.90;;;;;;;15.23;75.81;100846.84;4976604;28;20483;-79
2023/11/20 00:59:51;;;;;;;27.67;3.10;;;;;;;15.15;76.90;100847.78;4976624;28;20069;-80
2023/11/20 01:02:16;;;;;;;16.05;2.75;;;;;;;15.35;77.10;100852.03;4993382;28;20122;-79
2023/11/20 01:04:41;;;;;;;25.35;3.00;;;;;;;14.96;77.22;100854.88;4994138;28;20058;-79
2023/11/20 01:07:07;;;;;;;26.10;3.00;;;;;;;15.15;77.40;100856.53;4992128;28;20060;-79
2023/11/20 01:09:32;;;;;;;20.38;2.92;;;;;;;15.01;78.15;100853.97;4976137;28;20034;-79
2023/11/20 01:11:58;;;;;;;18.35;2.70;;;;;;;15.13;78.02;100860.03;4992636;28;20130;-79
2023/11/20 01:14:23;;;;;;;24.90;3.30;;;;;;;14.70;80.26;100872.50;4996656;28;20035;-79
2023/11/20 01:16:48;;;;;;;21.88;2.72;;;;;;;15.14;78.56;100867.03;4981148;28;20038;-79
2023/11/20 01:19:23;;;;;;;24.10;2.95;;;;;;;15.20;78.18;100865.25;4998560;28;20038;-78
2023/11/20 01:21:48;;;;;;;;;;;;;;;15.03;78.46;100862.72;4995374;28;20097;-78
2023/11/20 01:24:19;;;;;;;20.53;2.93;;;;;;;15.25;78.64;100871.34;4975680;28;20351;-78
2023/11/20 01:26:49;;;;;;;24.17;3.20;;;;;;;14.91;79.04;100875.03;4993533;28;20285;-79
2023/11/20 01:29:14;;;;;;;23.48;3.45;;;;;;;14.66;80.02;100889.09;5001150;28;20034;-79
2023/11/20 01:31:40;;;;;;;26.15;2.72;;;;;;;15.20;78.37;100885.38;5008988;28;20065;-79
2023/11/20 01:34:08;;;;;;;18.17;2.70;;;;;;;15.14;77.76;100874.91;4999955;28;20492;-80
2023/11/20 01:36:33;;;;;;;20.35;2.58;;;;;;;14.99;78.40;100889.00;5005650;28;20049;-79
2023/11/20 01:38:58;;;;;;;20.92;3.03;;;;;;;14.79;79.36;100889.06;5010236;28;20030;-79
2023/11/20 01:41:24;;;;;;;20.38;2.70;;;;;;;14.60;80.24;100892.63;5000375;28;20411;-79
2023/11/20 01:43:50;;;;;;;20.02;2.95;;;;;;;14.80;79.45;100887.31;4976975;28;20058;-80
2023/11/20 01:46:16;;;;;;;20.45;2.65;;;;;;;15.15;78.19;100884.53;4975355;28;20060;-80
2023/11/20 01:48:44;;;;;;;23.83;2.85;;;;;;;14.99;79.53;100886.38;4977327;28;20110;-79
2023/11/20 01:51:10;;;;;;;26.95;3.20;;;;;;;15.18;78.20;100884.53;5000974;28;20073;-79
2023/11/20 01:53:38;;;;;;;25.00;3.03;;;;;;;15.11;78.80;100890.69;4978161;28;20404;-79
2023/11/20 01:56:05;;;;;;;27.15;3.38;;;;;;;14.98;78.16;100887.25;4975700;28;20099;-79
2023/11/20 01:58:34;;;;;;;21.23;2.80;;;;;;;14.86;78.54;100889.91;4993190;28;20034;-79
2023/11/20 02:01:00;;;;;;;20.88;2.85;;;;;;;14.92;77.95;100890.78;4975005;28;20125;-79
2023/11/20 02:03:25;;;;;;;26.52;3.45;;;;;;;15.28;76.78;100889.72;4993178;28;20165;-79
2023/11/20 02:05:50;;;;;;;21.38;2.95;;;;;;;15.22;76.79;100878.38;4993655;28;20038;-79
2023/11/20 02:08:16;;;;;;;20.38;3.00;;;;;;;15.19;77.12;100881.88;4993423;28;20030;-79
2023/11/20 02:10:41;;;;;;;28.17;3.80;;;;;;;15.11;76.83;100881.06;4994294;28;20113;-79
2023/11/20 02:13:07;;;;;;;22.05;3.38;;;;;;;14.89;77.58;100888.16;4992865;28;20402;-80
2023/11/20 02:15:33;;;;;;;26.40;3.60;;;;;;;15.06;76.20;100884.59;4994136;28;20117;-79
2023/11/20 02:17:58;;;;;;;19.45;2.70;;;;;;;15.36;75.17;100881.81;5000576;28;20042;-79
2023/11/20 02:20:26;;;;;;;18.67;3.08;;;;;;;14.77;76.54;100888.19;5000245;28;20030;-78
2023/11/20 02:22:52;;;;;;;24.20;2.90;;;;;;;15.06;75.35;100882.84;4998064;28;20042;-79
2023/11/20 02:25:20;;;;;;;25.15;3.50;;;;;;;15.34;74.11;100889.69;4996258;28;20045;-79
2023/11/20 02:27:58;;;;;;;26.77;3.13;;;;;;;14.79;76.03;100894.31;4997577;28;20347;-78
2023/11/20 02:30:27;;;;;;;21.48;2.60;;;;;;;14.57;76.24;100882.16;4993866;28;20345;-79
2023/11/20 02:32:58;;;;;;;22.48;3.10;;;;;;;15.28;74.48;100868.69;4994572;28;20495;-80
2023/11/20 02:35:24;;;;;;;23.00;3.22;;;;;;;15.37;73.63;100873.00;4994982;28;20487;-78
2023/11/20 02:37:58;;;;;;;25.65;3.20;;;;;;;15.37;73.62;100876.50;4985170;28;20037;-81
2023/11/20 02:40:24;;;;;;;23.20;2.83;;;;;;;14.83;74.35;100877.66;4993049;28;20045;-79
2023/11/20 02:42:49;;;;;;;20.77;3.42;;;;;;;15.05;73.61;100870.59;4994104;28;20465;-80
2023/11/20 02:45:20;;;;;;;24.90;3.03;;;;;;;15.22;72.65;100871.38;4992756;28;20038;-80
2023/11/20 02:47:45;;;;;;;24.23;3.17;;;;;;;15.10;73.37;100876.69;4993896;28;20034;-80
2023/11/20 02:50:17;;;;;;;22.75;3.50;;;;;;;14.93;73.00;100874.16;4992586;28;20030;-79
2023/11/20 02:52:42;;;;;;;21.05;3.03;;;;;;;15.37;71.90;100873.88;4998673;28;20468;-78
2023/11/20 02:55:10;;;;;;;24.13;2.95;;;;;;;15.36;71.72;100876.53;4995635;28;20085;-78
2023/11/20 02:57:36;;;;;;;21.67;3.13;;;;;;;15.46;71.31;100882.59;4993316;28;20043;-78
2023/11/20 03:00:02;;;;;;;20.42;2.55;;;;;;;15.75;70.26;100872.78;4996330;28;20035;-78
2023/11/20 03:02:27;;;;;;;16.83;2.78;;;;;;;15.23;71.03;100880.13;4979128;28;20093;-78
2023/11/20 03:04:56;;;;;;;16.40;2.60;;;;;;;15.12;71.55;100881.94;4996720;28;20183;-78
2023/11/20 03:07:25;;;;;;;19.60;2.67;;;;;;;15.25;71.00;100884.47;4994607;28;20034;-79
2023/11/20 03:09:50;;;;;;;22.08;3.33;;;;;;;15.66;69.72;100883.38;4992484;28;20038;-79
2023/11/20 03:12:18;;;;;;;21.30;2.88;;;;;;;15.59;69.53;100894.81;4996042;28;20088;-79
2023/11/20 03:14:47;;;;;;;15.95;2.85;;;;;;;15.33;69.79;100876.53;5003991;28;20075;-78
2023/11/20 03:17:15;;;;;;;24.48;3.15;;;;;;;15.18;69.98;100890.66;4993706;28;20030;-78
2023/11/20 03:19:40;;;;;;;20.38;2.72;;;;;;;15.45;69.46;100884.34;5011588;28;20037;-78
2023/11/20 03:22:12;;;;;;;25.85;3.05;;;;;;;15.15;69.95;100882.78;5006683;28;20058;-78
2023/11/20 03:24:40;;;;;;;18.13;2.22;;;;;;;15.92;67.85;100876.16;5003352;28;20042;-78
2023/11/20 03:27:08;;;;;;;18.38;3.08;;;;;;;15.53;69.23;100874.72;4984895;28;20042;-78
2023/11/20 03:29:34;;;;;;;17.63;2.55;;;;;;;15.75;68.40;100873.66;5002964;28;20047;-80
2023/11/20 03:32:08;;;;;;;23.88;2.67;;;;;;;15.18;70.33;100885.41;4999850;28;20034;-78
2023/11/20 03:34:35;;;;;;;15.32;2.40;;;;;;;15.53;69.61;100879.09;4985773;28;20039;-78
2023/11/20 03:37:01;;;;;;;20.08;3.03;;;;;;;15.52;68.86;100882.56;5003461;28;20101;-78
2023/11/20 03:39:27;;;;;;;15.63;2.45;;;;;;;15.39;68.92;100887.03;4986136;28;20035;-78
2023/11/20 03:41:53;;;;;;;21.00;2.85;;;;;;;15.16;69.02;100884.53;5003808;28;20042;-78
2023/11/20 03:44:21;;;;;;;17.65;2.55;;;;;;;15.78;67.34;100885.91;4998582;28;20041;-79
2023/11/20 03:46:50;;;;;;;21.25;2.85;;;;;;;15.60;68.20;100886.06;5002098;28;20496;-79
2023/11/20 03:49:15;;;;;;;16.25;2.40;;;;;;;15.85;67.24;100879.75;5004198;28;20151;-78
2023/11/20 03:51:40;;;;;;;21.17;3.08;;;;;;;15.73;67.52;100870.19;5004152;28;20026;-78
2023/11/20 03:54:07;;;;;;;17.90;2.42;;;;;;;15.46;68.26;100882.59;5005792;28;20073;-78
2023/11/20 03:56:33;;;;;;;13.18;2.20;;;;;;;15.59;68.29;100879.03;4991676;28;20034;-77
2023/11/20 03:58:58;;;;;;;17.50;2.50;;;;;;;15.53;67.97;100882.59;4990456;28;20034;-78
2023/11/20 04:01:26;;;;;;;20.50;2.58;;;;;;;15.78;67.84;100876.28;5001987;28;20496;-78
2023/11/20 04:03:55;;;;;;;14.60;2.33;;;;;;;15.49;67.75;100879.97;4999871;28;20053;-79
2023/11/20 04:06:23;;;;;;;21.83;2.80;;;;;;;15.50;67.65;100881.69;4998168;28;20030;-78
2023/11/20 04:08:55;;;;;;;20.63;3.13;;;;;;;15.29;68.00;100878.34;4982091;28;20041;-77
2023/11/20 04:11:23;;;;;;;19.98;2.40;;;;;;;15.61;67.19;100878.16;4998634;28;20447;-80
2023/11/20 04:13:55;;;;;;;17.33;2.53;;;;;;;15.51;67.59;100880.81;5000929;28;20030;-77
2023/11/20 04:16:24;;;;;;;17.40;3.17;;;;;;;15.11;69.12;100880.19;5000351;28;20488;-79
2023/11/20 04:18:49;;;;;;;15.45;2.33;;;;;;;15.24;69.21;100880.13;5004683;28;20062;-78
2023/11/20 04:21:20;;;;;;;18.52;2.63;;;;;;;15.71;67.96;100881.59;5003043;28;20035;-78
2023/11/20 04:23:45;;;;;;;17.38;2.85;;;;;;;15.48;67.37;100878.22;5007857;28;20241;-78
2023/11/20 04:26:11;;;;;;;16.20;2.50;;;;;;;15.13;69.28;100887.16;4985790;28;20058;-78
2023/11/20 04:28:39;;;;;;;14.35;2.50;;;;;;;15.19;68.84;100887.13;4980895;28;20031;-80
2023/11/20 04:31:04;;;;;;;22.58;3.13;;;;;;;15.54;67.54;100883.47;4994303;28;20410;-79
2023/11/20 04:33:30;;;;;;;20.08;2.60;;;;;;;15.12;68.26;100888.06;4997711;28;20034;-79
2023/11/20 04:35:55;;;;;;;15.90;2.53;;;;;;;15.54;67.30;100886.09;4997946;28;20038;-80
2023/11/20 04:38:29;;;;;;;17.40;2.25;;;;;;;15.65;66.38;100885.13;4996696;28;20114;-78
2023/11/20 04:40:56;;;;;;;;;;;;;;;15.49;67.29;100885.22;4999681;28;20078;-78
2023/11/20 04:43:23;;;;;;;17.38;2.30;;;;;;;15.10;67.38;100887.19;5004759;28;19945;-78
2023/11/20 04:45:59;;;;;;;19.88;2.58;;;;;;;15.18;68.06;100888.03;5010884;28;20030;-78
2023/11/20 04:48:27;;;;;;;17.92;2.63;;;;;;;15.42;66.75;100889.66;5006843;28;20046;-78
2023/11/20 04:50:58;;;;;;;20.35;2.47;;;;;;;15.54;66.12;100883.47;4997741;28;20093;-78
2023/11/20 04:53:24;;;;;;;16.73;2.58;;;;;;;15.87;65.41;100892.84;4993813;28;20068;-80
2023/11/20 04:55:53;;;;;;;15.52;2.67;;;;;;;15.19;67.16;100873.13;4995129;28;20038;-80
2023/11/20 04:58:22;;;;;;;17.67;2.30;;;;;;;15.11;68.33;100881.06;4978694;28;20407;-78
2023/11/20 05:00:56;;;;;;;22.63;2.78;;;;;;;15.06;67.64;100882.84;4980677;28;20049;-79
2023/11/20 05:03:22;;;;;;;16.88;2.38;;;;;;;15.22;67.56;100881.00;4998851;28;20092;-78
2023/11/20 05:05:47;;;;;;;21.23;2.33;;;;;;;15.51;66.24;100880.81;5014839;28;20014;-77
2023/11/20 05:08:12;;;;;;;11.35;1.60;;;;;;;15.57;65.49;100888.69;5008890;28;20098;-80
2023/11/20 05:10:41;;;;;;;18.20;2.63;;;;;;;15.59;65.80;100892.19;4983829;28;20039;-80
2023/11/20 05:13:06;;;;;;;22.42;2.70;;;;;;;15.28;67.84;100883.59;4993482;28;20049;-79
2023/11/20 05:15:32;;;;;;;23.35;2.75;;;;;;;15.23;67.58;100881.00;4993484;28;20054;-80
2023/11/20 05:17:58;;;;;;;16.02;2.53;;;;;;;15.55;67.13;100887.84;4992817;28;20058;-79
2023/11/20 05:20:23;;;;;;;21.67;2.80;;;;;;;15.32;67.64;100888.81;4993279;28;20042;-78
2023/11/20 05:22:49;;;;;;;17.73;2.28;;;;;;;15.05;67.81;100885.47;4976299;28;20469;-79
2023/11/20 05:25:14;;;;;;;21.40;2.85;;;;;;;14.85;68.12;100901.28;4975858;28;20031;-79
2023/11/20 05:27:39;;;;;;;18.02;2.33;;;;;;;14.74;67.98;100909.22;4994326;28;20038;-78
2023/11/20 05:30:08;;;;;;;14.00;2.15;;;;;;;14.90;67.26;100902.16;4993638;28;20034;-78
2023/11/20 05:32:40;;;;;;;14.88;2.28;;;;;;;15.09;67.00;100898.56;4975861;28;20129;-78
2023/11/20 05:35:05;;;;;;;19.42;2.47;;;;;;;15.26;67.14;100895.84;4995172;28;20502;-80
2023/11/20 05:37:31;;;;;;;19.58;2.72;;;;;;;15.20;66.84;100894.13;4996460;28;20117;-80
2023/11/20 05:39:56;;;;;;;17.67;2.45;;;;;;;14.91;70.28;100896.03;4997332;28;20031;-79
2023/11/20 05:42:24;;;;;;;21.45;3.15;;;;;;;14.88;69.22;100901.28;4996802;28;20034;-78
2023/11/20 05:44:50;;;;;;;21.88;2.67;;;;;;;14.57;70.56;100897.91;4979542;28;20038;-78
2023/11/20 05:47:15;;;;;;;20.92;2.72;;;;;;;14.98;69.64;100903.88;4996641;28;20625;-78
2023/11/20 05:49:44;;;;;;;20.52;2.45;;;;;;;14.99;69.66;100904.75;4979674;28;20033;-77
2023/11/20 05:52:15;;;;;;;18.67;2.83;;;;;;;15.00;69.63;100903.88;4996895;28;20032;-80
2023/11/20 05:54:43;;;;;;;21.45;2.97;;;;;;;14.97;70.00;100901.25;4992317;28;20042;-79
2023/11/20 05:57:09;;;;;;;20.38;2.97;;;;;;;14.26;72.03;100893.53;4975181;28;20036;-78
2023/11/20 05:59:37;;;;;;;25.52;3.03;;;;;;;14.71;70.53;100908.31;4978097;28;20113;-78
2023/11/20 06:02:04;;;;;;;24.30;3.03;;;;;;;14.85;69.89;100904.78;4997193;28;20037;-79
2023/11/20 06:04:29;;;;;;;22.90;3.30;;;;;;;14.71;69.67;100908.31;4981248;28;20037;-78
2023/11/20 06:06:58;;;;;;;24.40;3.33;;;;;;;14.80;69.23;100892.56;4996807;28;20038;-78
2023/11/20 06:09:23;;;;;;;21.33;3.03;;;;;;;14.60;69.53;100898.75;4994913;28;20463;-78
2023/11/20 06:11:49;;;;;;;27.60;3.70;;;;;;;15.16;68.37;100897.66;4979195;28;20042;-78
2023/11/20 06:14:23;;;;;;;19.90;3.28;;;;;;;15.17;68.46;100909.03;4996832;28;20141;-78
2023/11/20 06:16:55;;;;;;;22.92;3.33;;;;;;;15.00;68.46;100909.97;4998992;28;20031;-80
2023/11/20 06:19:21;;;;;;;23.25;3.45;;;;;;;14.99;68.00;100918.75;4994623;28;20042;-80
2023/11/20 06:21:51;;;;;;;20.73;3.25;;;;;;;15.24;67.23;100909.00;4980332;28;20065;-78
2023/11/20 06:24:21;;;;;;;23.23;3.17;;;;;;;15.42;66.54;100914.16;4996771;28;20093;-79
2023/11/20 06:26:49;;;;;;;22.48;3.10;;;;;;;15.57;66.25;100910.59;4976506;28;20038;-79
2023/11/20 06:29:15;;;;;;;30.13;3.50;;;;;;;15.42;68.26;100908.91;4975750;28;20104;-79
2023/11/20 06:31:49;;;;;;;24.30;3.10;;;;;;;14.80;71.08;100916.19;4975727;28;20035;-79
2023/11/20 06:34:17;;;;;;;27.85;3.28;;;;;;;14.82;71.64;100912.66;4975152;28;20566;-78
2023/11/20 06:36:46;;;;;;;25.50;3.10;;;;;;;14.95;70.45;100919.63;4975693;28;20057;-78
2023/11/20 06:39:14;;;;;;;26.10;3.08;;;;;;;14.80;71.95;100918.81;4994601;28;20076;-78
2023/11/20 06:41:52;;;;;;;32.10;5.22;;;;;;;15.09;70.16;100916.94;4995028;28;20035;-78
2023/11/20 06:44:24;;;;;;;27.05;3.28;;;;;;;14.84;70.64;100918.78;4978905;28;21060;-78
2023/11/20 06:46:51;;;;;;;24.80;3.55;;;;;;;14.90;70.20;100917.88;4997887;28;20041;-78
2023/11/20 06:49:22;;;;;;;29.10;3.72;;;;;;;14.97;69.19;100922.25;5000155;28;20115;-78
2023/11/20 06:51:47;;;;;;;22.35;2.67;;;;;;;15.12;69.22;100927.44;5000855;28;20058;-78
2023/11/20 06:54:13;;;;;;;21.00;3.38;;;;;;;14.88;70.17;100930.16;5000143;28;20034;-78
2023/11/20 06:56:39;;;;;;;26.35;3.45;;;;;;;15.13;68.90;100913.41;5001169;28;20488;-78
2023/11/20 06:59:05;;;;;;;25.98;3.83;;;;;;;14.70;69.63;100924.97;5001540;28;20035;-78
2023/11/20 07:01:33;;;;;;;20.50;3.22;;;;;;;15.24;67.85;100927.41;5002660;28;20065;-78
2023/11/20 07:03:59;;;;;;;22.00;3.17;;;;;;;14.91;68.64;100931.03;5009951;28;20042;-78
2023/11/20 07:06:25;;;;;;;18.13;2.85;;;;;;;15.28;67.60;100923.88;5010856;28;20142;-78
2023/11/20 07:08:54;;;;;;;27.23;3.53;;;;;;;14.95;68.04;100922.25;5012482;28;20027;-78
2023/11/20 07:11:26;;;;;;;29.65;4.28;;;;;;;15.26;67.02;100927.38;4992144;28;20030;-79
2023/11/20 07:13:51;;;;;;;26.25;3.13;;;;;;;15.12;67.07;100942.34;5010253;28;20027;-77
2023/11/20 07:16:26;;;;;;;27.00;3.22;;;;;;;14.90;67.96;100928.41;5014957;28;20103;-78
2023/11/20 07:18:52;;;;;;;24.35;3.50;;;;;;;15.21;67.81;100932.66;4996784;28;20089;-78
2023/11/20 07:21:17;;;;;;;26.98;3.10;;;;;;;14.97;67.60;100931.00;5004212;28;20039;-78
2023/11/20 07:23:43;;;;;;;24.02;3.45;;;;;;;14.94;68.09;100938.03;5002825;28;20039;-80
2023/11/20 07:26:17;;;;;;;23.75;3.10;;;;;;;14.95;67.68;100932.75;4997752;28;20077;-80
2023/11/20 07:28:46;;;;;;;26.10;3.40;;;;;;;15.26;66.63;100940.50;4997593;28;20399;-79
2023/11/20 07:31:11;;;;;;;26.27;3.58;;;;;;;15.15;67.12;100944.94;4995586;28;20068;-79
2023/11/20 07:33:37;;;;;;;20.98;3.33;;;;;;;14.88;67.73;100944.13;4978133;28;20568;-78
2023/11/20 07:36:03;;;;;;;22.08;3.20;;;;;;;15.26;66.37;100941.38;4979449;28;20034;-79
2023/11/20 07:38:31;;;;;;;30.75;3.35;;;;;;;15.36;66.81;100950.09;4983878;28;20034;-79
2023/11/20 07:41:02;;;;;;;20.20;2.90;;;;;;;15.47;65.55;100958.78;5001083;28;20074;-80
2023/11/20 07:43:28;;;;;;;22.92;3.10;;;;;;;15.20;65.97;100951.03;4980909;28;20036;-78
2023/11/20 07:45:56;;;;;;;23.20;3.47;;;;;;;14.97;67.16;100959.00;4996954;28;20106;-80
2023/11/20 07:48:25;;;;;;;22.23;2.97;;;;;;;15.27;65.80;100956.25;4996399;28;20043;-80
2023/11/20 07:50:56;;;;;;;22.85;3.25;;;;;;;14.88;66.77;100954.63;4998670;28;20121;-80
2023/11/20 07:53:21;;;;;;;23.73;2.97;;;;;;;15.23;66.12;100958.91;4998921;28;20423;-79
2023/11/20 07:55:47;;;;;;;26.92;3.28;;;;;;;15.07;66.42;100957.19;4999986;28;20037;-79
2023/11/20 07:58:12;;;;;;;19.85;3.10;;;;;;;15.00;66.03;100957.22;5000931;28;20399;-79
2023/11/20 08:00:40;;;;;;;27.75;3.42;;;;;;;15.21;65.48;100961.53;5003823;28;20041;-78
2023/11/20 08:03:08;;;;;;;19.67;3.00;;;;;;;15.18;65.29;100955.44;5004053;28;20043;-79
2023/11/20 08:05:37;;;;;;;18.80;2.97;;;;;;;15.43;64.75;100957.03;5005545;28;20034;-78
2023/11/20 08:08:02;;;;;;;22.50;3.53;;;;;;;15.14;64.72;100964.19;4992038;28;20045;-78
2023/11/20 08:10:27;;;;;;;17.30;3.10;;;;;;;15.49;64.19;100959.63;5010928;28;20038;-78
2023/11/20 08:12:53;;;;;;;20.63;3.05;;;;;;;15.49;64.61;100961.44;5010710;28;20073;-79
2023/11/20 08:15:24;;;;;;;23.23;3.35;;;;;;;15.28;64.95;100954.50;4986256;28;20365;-78
2023/11/20 08:17:50;;;;;;;19.75;2.90;;;;;;;15.28;65.13;100960.63;4990879;28;20014;-78
2023/11/20 08:20:18;;;;;;;19.33;3.13;;;;;;;15.42;64.45;100960.56;5011223;28;20112;-78
2023/11/20 08:22:46;;;;;;;20.63;3.28;;;;;;;15.50;64.05;100956.13;5012339;28;20084;-79
2023/11/20 08:25:12;;;;;;;20.23;3.20;;;;;;;15.30;65.03;100958.00;5013834;28;20015;-79
2023/11/20 08:27:40;;;;;;;27.17;3.17;;;;;;;15.22;65.93;100957.16;4998221;28;20082;-77
2023/11/20 08:30:08;;;;;;;21.30;3.20;;;;;;;15.36;64.95;100943.09;5012704;28;20038;-77
2023/11/20 08:32:34;;;;;;;23.20;3.20;;;;;;;15.29;64.85;100956.25;5008538;28;20034;-78
2023/11/20 08:35:05;;;;;;;15.57;2.95;;;;;;;15.25;65.45;100946.63;5004039;28;20044;-78
2023/11/20 08:37:31;;;;;;;18.55;2.75;;;;;;;15.37;65.51;100950.06;5005751;28;20031;-78
2023/11/20 08:39:56;;;;;;;21.10;3.10;;;;;;;15.30;65.25;100948.38;4984913;28;20568;-79
2023/11/20 08:42:27;;;;;;;20.38;2.55;;;;;;;15.23;65.40;100949.28;5002095;28;20373;-79
2023/11/20 08:44:53;;;;;;;24.20;3.25;;;;;;;15.29;65.76;100954.50;5006241;28;20105;-79
2023/11/20 08:47:27;;;;;;;21.73;2.80;;;;;;;15.01;64.80;100952.84;5003337;28;20038;-78
2023/11/20 08:49:56;;;;;;;18.25;3.30;;;;;;;15.65;63.39;100955.22;4997473;28;20373;-78
2023/11/20 08:52:21;;;;;;;20.90;2.78;;;;;;;15.75;63.59;100954.28;4994765;28;20034;-78
2023/11/20 08:54:56;;;;;;;18.30;2.90;;;;;;;15.93;62.26;100945.38;4978134;28;20026;-79
2023/11/20 08:57:27;;;;;;;20.80;2.45;;;;;;;15.81;62.33;100949.84;5003880;28;20041;-79
2023/11/20 08:59:53;;;;;;;22.10;2.92;;;;;;;15.83;62.27;100942.84;5012580;28;20531;-78
2023/11/20 09:02:24;;;;;;;25.00;2.70;;;;;;;15.73;62.77;100942.91;4994692;28;20034;-78
2023/11/20 09:04:50;;;;;;;25.33;2.92;;;;;;;15.34;64.40;100957.09;5013035;28;20041;-78
2023/11/20 09:07:15;;;;;;;23.40;2.67;;;;;;;15.41;65.10;100948.31;5014378;28;20042;-78
2023/11/20 09:09:45;;;;;;;20.98;3.65;;;;;;;15.29;65.53;100957.13;5013752;28;20053;-79
2023/11/20 09:12:10;;;;;;;22.95;2.80;;;;;;;15.23;66.66;100959.78;5015149;28;20050;-77
2023/11/20 09:14:36;;;;;;;22.85;3.20;;;;;;;15.08;67.47;100962.47;4998884;28;20038;-78
2023/11/20 09:17:01;;;;;;;22.88;3.55;;;;;;;14.76;68.28;100967.78;5000328;28;20026;-79
2023/11/20 09:19:26;;;;;;;24.90;3.35;;;;;;;14.90;69.13;100966.03;5016976;28;20101;-80
2023/11/20 09:21:52;;;;;;;27.83;3.28;;;;;;;15.12;69.37;100961.59;4994380;28;20039;-78
2023/11/20 09:24:18;;;;;;;20.58;2.80;;;;;;;15.16;69.35;100959.81;4999112;28;20042;-80
2023/11/20 09:26:44;;;;;;;21.42;2.80;;;;;;;14.98;70.25;100960.75;5015938;28;20086;-78
2023/11/20 09:29:10;;;;;;;15.13;2.67;;;;;;;15.05;69.50;100954.59;5015739;28;20061;-78
2023/11/20 09:31:42;;;;;;;19.27;3.33;;;;;;;15.02;69.99;100952.84;5013253;28;20034;-79
2023/11/20 09:34:08;;;;;;;20.65;2.97;;;;;;;14.81;70.16;100954.69;5007789;28;20050;-78
2023/11/20 09:36:33;;;;;;;15.77;2.40;;;;;;;15.28;68.82;100952.75;5008848;28;20030;-78
2023/11/20 09:38:58;;;;;;;17.33;2.20;;;;;;;15.12;68.92;100951.09;5007449;28;20096;-78
2023/11/20 09:41:26;;;;;;;19.30;2.60;;;;;;;15.24;68.50;100945.78;4992470;28;20090;-78
2023/11/20 09:43:52;;;;;;;22.58;3.08;;;;;;;15.22;68.41;100942.28;5026436;23;20054;-44
2023/11/20 09:46:20;;;;;;;15.77;3.00;;;;;;;15.04;69.41;100947.59;4983580;28;20131;-48
2023/11/20 09:48:48;;;;;;;14.63;2.63;;;;;;;15.31;69.21;100944.84;4995909;28;20033;-48
2023/11/20 09:51:19;;;;;;;19.08;2.88;;;;;;;15.40;69.17;100939.56;4971608;28;20046;-49
2023/11/20 09:53:48;;;;;;;19.73;2.88;;;;;;;15.20;69.19;100945.78;4986755;28;20037;-46
2023/11/20 09:56:14;;;;;;;13.77;2.60;;;;;;;15.48;68.94;100946.53;4978344;28;20061;-47
2023/11/20 09:58:41;;;;;;;18.67;3.05;;;;;;;15.45;69.41;100947.41;4971205;28;20027;-46
2023/11/20 10:01:09;;;;;;;19.02;2.72;;;;;;;15.52;68.50;100945.63;4971046;28;20046;-47
2023/11/20 10:03:42;;;;;;;12.05;2.63;;;;;;;16.08;67.43;100935.63;4970931;28;20038;-51
2023/11/20 10:06:09;;;;;;;17.45;3.22;;;;;;;16.17;67.69;100937.28;4970552;28;20042;-46
2023/11/20 10:08:36;;;;;;;18.65;2.55;;;;;;;15.38;69.61;100936.06;4970868;28;20093;-47
2023/11/20 10:11:02;;;;;;;20.58;3.20;;;;;;;15.15;71.44;100945.81;4988004;28;20178;-46
2023/11/20 10:13:30;;;;;;;22.85;3.20;;;;;;;15.40;70.91;100954.44;4991374;28;20125;-45
2023/11/20 10:15:56;;;;;;;18.75;2.90;;;;;;;14.83;72.50;100939.78;4991844;28;20065;-46
2023/11/20 10:18:21;;;;;;;18.05;3.10;;;;;;;14.98;72.39;100950.25;4991768;28;20042;-45
2023/11/20 10:20:48;;;;;;;21.80;2.67;;;;;;;14.41;72.23;100935.50;4978593;28;20428;-47
2023/11/20 10:23:15;;;;;;;15.20;2.40;;;;;;;14.70;70.90;100932.84;4970277;28;20039;-48
2023/11/20 10:25:43;;;;;;;19.00;2.85;;;;;;;14.65;70.80;100931.97;4971458;28;20042;-47
2023/11/20 10:28:08;;;;;;;16.25;2.65;;;;;;;14.95;69.75;100930.13;4970541;28;20045;-44
2023/11/20 10:30:34;;;;;;;15.55;2.08;;;;;;;14.55;69.66;100931.13;4970971;28;20035;-44
2023/11/20 10:33:00;;;;;;;16.60;2.75;;;;;;;14.72;69.00;100913.56;4970357;28;20042;-45
2023/11/20 10:35:27;;;;;;;15.82;2.22;;;;;;;14.73;69.21;100917.97;4970835;28;20037;-44
2023/11/20 10:38:03;;;;;;;11.63;1.83;;;;;;;14.51;68.51;100919.78;4990194;28;20797;-43
2023/11/20 10:40:29;;;;;;;15.95;2.33;;;;;;;14.37;68.51;100915.38;5009149;28;20034;-46
2023/11/20 10:42:55;;;;;;;14.15;2.05;;;;;;;14.71;67.53;100911.81;5010174;28;20389;-44
2023/11/20 10:45:22;;;;;;;18.00;2.50;;;;;;;14.26;70.00;100912.78;5009486;28;20041;-44
2023/11/20 10:47:49;;;;;;;15.63;2.03;;;;;;;14.32;70.20;100917.13;5009850;28;20029;-45
2023/11/20 10:50:15;;;;;;;19.42;2.58;;;;;;;14.19;70.68;100916.28;5009588;28;20037;-45
2023/11/20 10:52:41;;;;;;;18.52;2.50;;;;;;;14.38;70.16;100906.69;5010023;28;20033;-47
2023/11/20 10:55:11;;;;;;;16.15;2.67;;;;;;;14.14;70.29;100902.31;4982652;28;20038;-44
2023/11/20 10:57:38;;;;;;;14.88;2.50;;;;;;;14.65;68.64;100893.47;4991251;28;20186;-49
2023/11/20 11:00:10;;;;;;;18.42;2.55;;;;;;;14.07;70.58;100892.69;4990285;28;20586;-48
2023/11/20 11:02:44;;;;;;;21.85;2.40;;;;;;;14.30;70.57;100898.78;4991378;28;20042;-45
2023/11/20 11:05:12;;;;;;;22.70;2.83;;;;;;;14.37;70.27;100892.69;4990738;28;20046;-46
2023/11/20 11:07:42;;;;;;;23.75;3.00;;;;;;;14.69;70.47;100896.97;4991661;28;20031;-46
2023/11/20 11:10:11;;;;;;;21.45;2.75;;;;;;;14.58;69.47;100891.75;4990977;28;20045;-46
2023/11/20 11:12:44;;;;;;;18.25;2.42;;;;;;;14.92;68.96;100885.53;4991763;28;20580;-45
2023/11/20 11:15:14;;;;;;;17.73;2.90;;;;;;;15.00;69.40;100888.13;4990780;28;20141;-45
2023/11/20 11:18:05;;;;;;;19.75;2.75;;;;;;;14.82;69.22;100894.28;4991640;28;20030;-44